NDF1084 EKVD-EKSN
Flight info
| Callsign | NDF1084 |
|---|---|
| Flight time | N/A |
| Altitude | 2800 |
| Route | DCT |
| Aircraft | PA24/L-SDGRY/S |
Departure
| Time | N/A |
|---|---|
| Airport | Kolding Vamdrup Airfield (EKVD) |
Arrival
| Time | 2026-04-26 19:06 |
|---|---|
| Airport | Sindal Airport (EKSN) |
| Time | Latitude | Longitude | Altitude | Speed | Heading |
|---|---|---|---|---|---|
| 2026-04-26 18:00 | 55.69958 | 9.75293 | 3170 ft | 151 kts | 31° |
| 2026-04-26 18:00 | 55.70829 | 9.76331 | 3170 ft | 150 kts | 35° |
| 2026-04-26 18:00 | 55.71647 | 9.77510 | 3167 ft | 151 kts | 34° |
| 2026-04-26 18:00 | 55.72490 | 9.78632 | 3165 ft | 152 kts | 29° |
| 2026-04-26 18:01 | 55.73364 | 9.79687 | 3161 ft | 151 kts | 29° |
| 2026-04-26 18:01 | 55.74237 | 9.80676 | 3167 ft | 149 kts | 30° |
| 2026-04-26 18:01 | 55.75094 | 9.81738 | 3165 ft | 151 kts | 28° |
| 2026-04-26 18:01 | 55.75964 | 9.82784 | 3162 ft | 150 kts | 30° |
| 2026-04-26 18:02 | 55.76794 | 9.83913 | 3166 ft | 151 kts | 29° |
| 2026-04-26 18:02 | 55.77363 | 9.84630 | 3164 ft | 151 kts | 33° |
| 2026-04-26 18:02 | 55.78499 | 9.86002 | 3167 ft | 150 kts | 20° |
| 2026-04-26 18:02 | 55.79513 | 9.86357 | 3166 ft | 147 kts | 11° |
| 2026-04-26 18:03 | 55.80516 | 9.86715 | 3162 ft | 146 kts | 3° |
| 2026-04-26 18:03 | 55.81406 | 9.86907 | 3155 ft | 145 kts | 8° |
| 2026-04-26 18:03 | 55.82244 | 9.87246 | 3160 ft | 147 kts | 8° |
| 2026-04-26 18:03 | 55.83261 | 9.87538 | 3160 ft | 145 kts | 358° |
| 2026-04-26 18:04 | 55.84242 | 9.87772 | 3159 ft | 143 kts | 6° |
| 2026-04-26 18:04 | 55.85191 | 9.88047 | 3159 ft | 144 kts | 8° |
| 2026-04-26 18:04 | 55.86185 | 9.88335 | 3157 ft | 144 kts | 4° |
| 2026-04-26 18:05 | 55.88167 | 9.88900 | 3162 ft | 143 kts | 7° |
| 2026-04-26 18:05 | 55.89156 | 9.89171 | 3165 ft | 144 kts | 8° |
| 2026-04-26 18:05 | 55.90150 | 9.89387 | 3165 ft | 145 kts | 359° |
| 2026-04-26 18:05 | 55.91156 | 9.89437 | 3163 ft | 144 kts | 355° |
| 2026-04-26 18:06 | 55.92132 | 9.89455 | 3164 ft | 143 kts | 0° |
| 2026-04-26 18:06 | 55.93122 | 9.89570 | 3163 ft | 144 kts | 0° |
| 2026-04-26 18:06 | 55.94125 | 9.89614 | 3164 ft | 143 kts | 355° |
| 2026-04-26 18:06 | 55.95122 | 9.89547 | 3164 ft | 143 kts | 357° |
| 2026-04-26 18:07 | 55.96122 | 9.89562 | 3161 ft | 144 kts | 355° |
| 2026-04-26 18:07 | 55.97121 | 9.89546 | 3160 ft | 143 kts | 353° |
| 2026-04-26 18:07 | 55.98117 | 9.89607 | 3160 ft | 143 kts | 0° |
| 2026-04-26 18:07 | 55.98783 | 9.89606 | 3159 ft | 143 kts | 355° |
| 2026-04-26 18:08 | 55.99983 | 9.89557 | 3161 ft | 143 kts | 356° |
| 2026-04-26 18:08 | 56.00980 | 9.89572 | 3162 ft | 144 kts | 355° |
| 2026-04-26 18:08 | 56.01983 | 9.89590 | 3164 ft | 143 kts | 358° |
| 2026-04-26 18:08 | 56.02940 | 9.89618 | 3166 ft | 143 kts | 356° |
| 2026-04-26 18:09 | 56.03938 | 9.89589 | 3162 ft | 143 kts | 355° |
| 2026-04-26 18:09 | 56.04937 | 9.89572 | 3160 ft | 143 kts | 355° |
| 2026-04-26 18:09 | 56.05939 | 9.89517 | 3158 ft | 143 kts | 357° |
| 2026-04-26 18:09 | 56.06940 | 9.89537 | 3163 ft | 144 kts | 354° |
| 2026-04-26 18:10 | 56.07931 | 9.89469 | 3162 ft | 145 kts | 349° |
| 2026-04-26 18:10 | 56.08934 | 9.89350 | 3164 ft | 145 kts | 355° |
| 2026-04-26 18:10 | 56.09894 | 9.89361 | 3163 ft | 145 kts | 1° |
| 2026-04-26 18:10 | 56.10897 | 9.89399 | 3162 ft | 143 kts | 1° |
| 2026-04-26 18:11 | 56.11893 | 9.89461 | 3162 ft | 145 kts | 357° |
| 2026-04-26 18:11 | 56.12902 | 9.89483 | 3161 ft | 144 kts | 355° |
| 2026-04-26 18:11 | 56.13907 | 9.89474 | 3162 ft | 144 kts | 355° |
| 2026-04-26 18:11 | 56.14905 | 9.89398 | 3154 ft | 143 kts | 353° |
| 2026-04-26 18:12 | 56.15904 | 9.89370 | 3159 ft | 144 kts | 360° |
| 2026-04-26 18:12 | 56.16794 | 9.89477 | 3152 ft | 143 kts | 356° |
| 2026-04-26 18:12 | 56.17759 | 9.89465 | 3149 ft | 136 kts | 355° |
| 2026-04-26 18:12 | 56.18694 | 9.89539 | 3143 ft | 134 kts | 356° |
| 2026-04-26 18:13 | 56.19603 | 9.89539 | 3148 ft | 131 kts | 352° |
| 2026-04-26 18:13 | 56.20476 | 9.89584 | 3151 ft | 130 kts | 355° |
| 2026-04-26 18:13 | 56.21370 | 9.89567 | 3159 ft | 127 kts | 355° |
| 2026-04-26 18:13 | 56.21957 | 9.89564 | 3162 ft | 128 kts | 356° |
| 2026-04-26 18:14 | 56.23152 | 9.89602 | 3159 ft | 129 kts | 355° |
| 2026-04-26 18:14 | 56.24048 | 9.89634 | 3160 ft | 128 kts | 358° |
| 2026-04-26 18:14 | 56.24941 | 9.89672 | 3158 ft | 128 kts | 359° |
| 2026-04-26 18:14 | 56.25833 | 9.89751 | 3159 ft | 128 kts | 359° |
| 2026-04-26 18:15 | 56.26700 | 9.89763 | 3157 ft | 128 kts | 355° |
| 2026-04-26 18:15 | 56.27592 | 9.89827 | 3162 ft | 129 kts | 357° |
| 2026-04-26 18:15 | 56.28491 | 9.89891 | 3163 ft | 129 kts | 356° |
| 2026-04-26 18:15 | 56.29391 | 9.89924 | 3164 ft | 129 kts | 354° |
| 2026-04-26 18:16 | 56.30289 | 9.89912 | 3164 ft | 128 kts | 355° |
| 2026-04-26 18:16 | 56.32073 | 9.89964 | 3161 ft | 128 kts | 354° |
| 2026-04-26 18:16 | 56.32931 | 9.89969 | 3237 ft | 122 kts | 355° |
| 2026-04-26 18:17 | 56.33794 | 9.89990 | 3224 ft | 126 kts | 356° |
| 2026-04-26 18:17 | 56.34566 | 9.90057 | 3235 ft | 126 kts | 357° |
| 2026-04-26 18:17 | 56.35440 | 9.90047 | 3261 ft | 124 kts | 352° |
| 2026-04-26 18:17 | 56.36315 | 9.90069 | 3252 ft | 126 kts | 354° |
| 2026-04-26 18:18 | 56.37178 | 9.90117 | 3276 ft | 124 kts | 356° |
| 2026-04-26 18:18 | 56.38030 | 9.90152 | 3171 ft | 128 kts | 359° |
| 2026-04-26 18:18 | 56.38916 | 9.90157 | 3120 ft | 123 kts | 353° |
| 2026-04-26 18:18 | 56.39779 | 9.90165 | 2957 ft | 126 kts | 358° |
| 2026-04-26 18:19 | 56.40667 | 9.90224 | 2816 ft | 125 kts | 357° |
| 2026-04-26 18:19 | 56.41530 | 9.90257 | 2700 ft | 124 kts | 355° |
| 2026-04-26 18:19 | 56.42399 | 9.90267 | 2563 ft | 124 kts | 355° |
| 2026-04-26 18:19 | 56.43256 | 9.90275 | 2446 ft | 123 kts | 355° |
| 2026-04-26 18:20 | 56.44114 | 9.90313 | 2387 ft | 125 kts | 358° |
| 2026-04-26 18:20 | 56.44996 | 9.90543 | 2411 ft | 132 kts | 19° |
| 2026-04-26 18:20 | 56.45747 | 9.91578 | 2422 ft | 140 kts | 39° |
| 2026-04-26 18:20 | 56.45975 | 9.91979 | 2425 ft | 142 kts | 39° |
| 2026-04-26 18:21 | 56.47168 | 9.94140 | 2415 ft | 147 kts | 39° |
| 2026-04-26 18:21 | 56.47678 | 9.94988 | 2417 ft | 148 kts | 39° |
| 2026-04-26 18:21 | 56.48632 | 9.96784 | 2412 ft | 150 kts | 41° |
| 2026-04-26 18:21 | 56.49339 | 9.98155 | 2402 ft | 149 kts | 43° |
| 2026-04-26 18:22 | 56.50074 | 9.99474 | 2406 ft | 149 kts | 42° |
| 2026-04-26 18:22 | 56.50578 | 10.00366 | 2396 ft | 150 kts | 38° |
| 2026-04-26 18:22 | 56.51311 | 10.01692 | 2398 ft | 149 kts | 43° |
| 2026-04-26 18:22 | 56.51956 | 10.02896 | 2394 ft | 150 kts | 40° |
| 2026-04-26 18:23 | 56.52678 | 10.04255 | 2400 ft | 149 kts | 43° |
| 2026-04-26 18:23 | 56.53419 | 10.05583 | 2400 ft | 150 kts | 41° |
| 2026-04-26 18:23 | 56.54163 | 10.06910 | 2398 ft | 149 kts | 40° |
| 2026-04-26 18:23 | 56.54886 | 10.08205 | 2397 ft | 150 kts | 40° |
| 2026-04-26 18:24 | 56.55564 | 10.09441 | 2392 ft | 150 kts | 44° |
| 2026-04-26 18:24 | 56.56307 | 10.10822 | 2397 ft | 151 kts | 40° |
| 2026-04-26 18:24 | 56.57037 | 10.12143 | 2397 ft | 151 kts | 41° |
| 2026-04-26 18:24 | 56.57784 | 10.13482 | 2397 ft | 150 kts | 42° |
| 2026-04-26 18:25 | 56.58515 | 10.14829 | 2402 ft | 150 kts | 41° |
| 2026-04-26 18:25 | 56.59249 | 10.16175 | 2398 ft | 150 kts | 41° |
| 2026-04-26 18:25 | 56.59991 | 10.17515 | 2400 ft | 150 kts | 41° |
| 2026-04-26 18:25 | 56.60726 | 10.18862 | 2402 ft | 150 kts | 42° |
| 2026-04-26 18:26 | 56.61453 | 10.20201 | 2398 ft | 150 kts | 41° |
| 2026-04-26 18:26 | 56.62191 | 10.21548 | 2405 ft | 150 kts | 41° |
| 2026-04-26 18:26 | 56.62933 | 10.22893 | 2398 ft | 149 kts | 41° |
| 2026-04-26 18:26 | 56.63667 | 10.24199 | 2395 ft | 150 kts | 41° |
| 2026-04-26 18:27 | 56.64407 | 10.25527 | 2398 ft | 150 kts | 41° |
| 2026-04-26 18:27 | 56.65149 | 10.26859 | 2398 ft | 150 kts | 41° |
| 2026-04-26 18:27 | 56.65892 | 10.28190 | 2395 ft | 150 kts | 41° |
| 2026-04-26 18:27 | 56.66638 | 10.29517 | 2395 ft | 149 kts | 41° |
| 2026-04-26 18:28 | 56.67384 | 10.30850 | 2392 ft | 150 kts | 41° |
| 2026-04-26 18:28 | 56.68116 | 10.32158 | 2397 ft | 149 kts | 41° |
| 2026-04-26 18:28 | 56.68857 | 10.33494 | 2396 ft | 150 kts | 41° |
| 2026-04-26 18:28 | 56.69583 | 10.34796 | 2396 ft | 150 kts | 41° |
| 2026-04-26 18:29 | 56.70326 | 10.36128 | 2393 ft | 149 kts | 41° |
| 2026-04-26 18:29 | 56.71068 | 10.37454 | 2402 ft | 149 kts | 41° |
| 2026-04-26 18:29 | 56.71813 | 10.38784 | 2400 ft | 149 kts | 41° |
| 2026-04-26 18:29 | 56.72558 | 10.40118 | 2365 ft | 151 kts | 41° |
| 2026-04-26 18:30 | 56.73305 | 10.41450 | 2376 ft | 149 kts | 41° |
| 2026-04-26 18:30 | 56.74038 | 10.42754 | 2421 ft | 147 kts | 41° |
| 2026-04-26 18:30 | 56.74777 | 10.44069 | 2404 ft | 149 kts | 41° |
| 2026-04-26 18:30 | 56.75522 | 10.45388 | 2400 ft | 149 kts | 41° |
| 2026-04-26 18:31 | 56.76249 | 10.46745 | 2396 ft | 149 kts | 51° |
| 2026-04-26 18:31 | 56.76510 | 10.48511 | 2401 ft | 150 kts | 91° |
| 2026-04-26 18:31 | 56.76402 | 10.50425 | 2396 ft | 153 kts | 92° |
| 2026-04-26 18:31 | 56.76549 | 10.52332 | 2398 ft | 152 kts | 76° |
| 2026-04-26 18:32 | 56.76763 | 10.54222 | 2397 ft | 152 kts | 76° |
| 2026-04-26 18:32 | 56.77036 | 10.56081 | 2400 ft | 151 kts | 71° |
| 2026-04-26 18:32 | 56.77372 | 10.57905 | 2409 ft | 152 kts | 64° |
| 2026-04-26 18:32 | 56.77796 | 10.59632 | 2395 ft | 151 kts | 64° |
| 2026-04-26 18:33 | 56.78252 | 10.61353 | 2397 ft | 151 kts | 60° |
| 2026-04-26 18:33 | 56.78735 | 10.63052 | 2397 ft | 150 kts | 60° |
| 2026-04-26 18:33 | 56.79249 | 10.64714 | 2399 ft | 150 kts | 49° |
| 2026-04-26 18:33 | 56.80137 | 10.65619 | 2398 ft | 148 kts | 8° |
| 2026-04-26 18:34 | 56.81149 | 10.65862 | 2395 ft | 146 kts | 5° |
| 2026-04-26 18:34 | 56.82154 | 10.66094 | 2397 ft | 145 kts | 5° |
| 2026-04-26 18:34 | 56.83156 | 10.66314 | 2398 ft | 145 kts | 5° |
| 2026-04-26 18:34 | 56.84148 | 10.66522 | 2398 ft | 145 kts | 5° |
| 2026-04-26 18:35 | 56.85157 | 10.66731 | 2398 ft | 145 kts | 4° |
| 2026-04-26 18:35 | 56.86161 | 10.66933 | 2398 ft | 145 kts | 4° |
| 2026-04-26 18:35 | 56.87043 | 10.67108 | 2397 ft | 145 kts | 4° |
| 2026-04-26 18:35 | 56.88047 | 10.67312 | 2396 ft | 145 kts | 4° |
| 2026-04-26 18:36 | 56.89054 | 10.67517 | 2398 ft | 145 kts | 4° |
| 2026-04-26 18:36 | 56.90044 | 10.67718 | 2400 ft | 145 kts | 4° |
| 2026-04-26 18:36 | 56.91049 | 10.67921 | 2401 ft | 145 kts | 4° |
| 2026-04-26 18:36 | 56.92046 | 10.68104 | 2397 ft | 145 kts | 358° |
| 2026-04-26 18:37 | 56.93049 | 10.68220 | 2398 ft | 144 kts | 1° |
| 2026-04-26 18:37 | 56.94025 | 10.68459 | 2396 ft | 143 kts | 4° |
| 2026-04-26 18:37 | 56.95006 | 10.68783 | 2397 ft | 143 kts | 9° |
| 2026-04-26 18:37 | 56.95985 | 10.69177 | 2395 ft | 144 kts | 9° |
| 2026-04-26 18:38 | 56.96971 | 10.69565 | 2399 ft | 144 kts | 8° |
| 2026-04-26 18:38 | 56.97958 | 10.69927 | 2402 ft | 144 kts | 7° |
| 2026-04-26 18:38 | 56.98946 | 10.70253 | 2402 ft | 145 kts | 8° |
| 2026-04-26 18:38 | 56.99925 | 10.70602 | 2400 ft | 144 kts | 8° |
| 2026-04-26 18:39 | 57.00914 | 10.70948 | 2400 ft | 145 kts | 8° |
| 2026-04-26 18:39 | 57.01907 | 10.71292 | 2403 ft | 145 kts | 8° |
| 2026-04-26 18:39 | 57.02899 | 10.71639 | 2404 ft | 145 kts | 8° |
| 2026-04-26 18:39 | 57.03894 | 10.71959 | 2400 ft | 145 kts | 7° |
| 2026-04-26 18:40 | 57.04803 | 10.72241 | 2395 ft | 144 kts | 7° |
| 2026-04-26 18:40 | 57.05784 | 10.72544 | 2397 ft | 144 kts | 7° |
| 2026-04-26 18:40 | 57.06782 | 10.72846 | 2397 ft | 144 kts | 6° |
| 2026-04-26 18:40 | 57.07774 | 10.73150 | 2395 ft | 145 kts | 7° |
| 2026-04-26 18:41 | 57.08770 | 10.73482 | 2400 ft | 145 kts | 8° |
| 2026-04-26 18:41 | 57.09753 | 10.73817 | 2399 ft | 145 kts | 8° |
| 2026-04-26 18:41 | 57.10749 | 10.74151 | 2403 ft | 145 kts | 7° |
| 2026-04-26 18:41 | 57.11749 | 10.74472 | 2398 ft | 146 kts | 7° |
| 2026-04-26 18:42 | 57.12749 | 10.74796 | 2399 ft | 146 kts | 7° |
| 2026-04-26 18:42 | 57.13752 | 10.75118 | 2400 ft | 146 kts | 7° |
| 2026-04-26 18:42 | 57.14739 | 10.75431 | 2401 ft | 146 kts | 7° |
| 2026-04-26 18:42 | 57.15725 | 10.75748 | 2393 ft | 145 kts | 6° |
| 2026-04-26 18:43 | 57.16719 | 10.76057 | 2399 ft | 145 kts | 7° |
| 2026-04-26 18:43 | 57.17718 | 10.76390 | 2399 ft | 145 kts | 8° |
| 2026-04-26 18:43 | 57.18711 | 10.76751 | 2403 ft | 146 kts | 8° |
| 2026-04-26 18:43 | 57.19709 | 10.77114 | 2400 ft | 146 kts | 8° |
| 2026-04-26 18:44 | 57.20698 | 10.77471 | 2400 ft | 146 kts | 8° |
| 2026-04-26 18:44 | 57.21701 | 10.77822 | 2402 ft | 146 kts | 8° |
| 2026-04-26 18:44 | 57.22708 | 10.78167 | 2399 ft | 146 kts | 8° |
| 2026-04-26 18:44 | 57.23683 | 10.78491 | 2397 ft | 146 kts | 7° |
| 2026-04-26 18:45 | 57.24688 | 10.78821 | 2403 ft | 146 kts | 7° |
| 2026-04-26 18:45 | 57.25691 | 10.79158 | 2400 ft | 146 kts | 7° |
| 2026-04-26 18:45 | 57.26697 | 10.79495 | 2400 ft | 146 kts | 7° |
| 2026-04-26 18:45 | 57.27705 | 10.79833 | 2399 ft | 147 kts | 7° |
| 2026-04-26 18:46 | 57.28697 | 10.80168 | 2401 ft | 147 kts | 7° |
| 2026-04-26 18:46 | 57.29707 | 10.80513 | 2398 ft | 147 kts | 7° |
| 2026-04-26 18:46 | 57.30714 | 10.80859 | 2401 ft | 147 kts | 7° |
| 2026-04-26 18:46 | 57.31723 | 10.81209 | 2401 ft | 147 kts | 7° |
| 2026-04-26 18:47 | 57.32727 | 10.81554 | 2400 ft | 147 kts | 7° |
| 2026-04-26 18:47 | 57.33721 | 10.81896 | 2399 ft | 147 kts | 7° |
| 2026-04-26 18:47 | 57.34730 | 10.82251 | 2400 ft | 147 kts | 7° |
| 2026-04-26 18:47 | 57.35737 | 10.82603 | 2402 ft | 147 kts | 7° |
| 2026-04-26 18:48 | 57.36744 | 10.82955 | 2400 ft | 147 kts | 7° |
| 2026-04-26 18:48 | 57.37744 | 10.83312 | 2399 ft | 147 kts | 7° |
| 2026-04-26 18:48 | 57.38752 | 10.83669 | 2399 ft | 147 kts | 7° |
| 2026-04-26 18:48 | 57.39741 | 10.84027 | 2393 ft | 147 kts | 7° |
| 2026-04-26 18:49 | 57.40747 | 10.84391 | 2401 ft | 147 kts | 8° |
| 2026-04-26 18:49 | 57.41743 | 10.84760 | 2400 ft | 147 kts | 8° |
| 2026-04-26 18:49 | 57.42753 | 10.85127 | 2400 ft | 147 kts | 8° |
| 2026-04-26 18:49 | 57.43762 | 10.85491 | 2400 ft | 147 kts | 8° |
| 2026-04-26 18:50 | 57.44776 | 10.85852 | 2397 ft | 148 kts | 7° |
| 2026-04-26 18:50 | 57.45776 | 10.86207 | 2398 ft | 147 kts | 7° |
| 2026-04-26 18:50 | 57.46784 | 10.86561 | 2399 ft | 147 kts | 7° |
| 2026-04-26 18:50 | 57.47793 | 10.86916 | 2397 ft | 148 kts | 7° |
| 2026-04-26 18:51 | 57.48805 | 10.87276 | 2400 ft | 148 kts | 7° |
| 2026-04-26 18:51 | 57.49820 | 10.87645 | 2400 ft | 148 kts | 8° |
| 2026-04-26 18:51 | 57.50818 | 10.88012 | 2401 ft | 148 kts | 7° |
| 2026-04-26 18:51 | 57.51833 | 10.88380 | 2402 ft | 148 kts | 7° |
| 2026-04-26 18:52 | 57.52845 | 10.88754 | 2400 ft | 148 kts | 8° |
| 2026-04-26 18:52 | 57.53858 | 10.89131 | 2399 ft | 148 kts | 7° |
| 2026-04-26 18:52 | 57.54871 | 10.89498 | 2398 ft | 148 kts | 7° |
| 2026-04-26 18:52 | 57.55874 | 10.89863 | 2398 ft | 148 kts | 5° |
| 2026-04-26 18:53 | 57.56846 | 10.89517 | 2392 ft | 142 kts | 324° |
| 2026-04-26 18:53 | 57.57398 | 10.88095 | 2390 ft | 135 kts | 284° |
| 2026-04-26 18:53 | 57.57554 | 10.86403 | 2394 ft | 131 kts | 277° |
| 2026-04-26 18:53 | 57.57681 | 10.84729 | 2392 ft | 129 kts | 277° |
| 2026-04-26 18:54 | 57.57799 | 10.83085 | 2386 ft | 129 kts | 276° |
| 2026-04-26 18:54 | 57.57916 | 10.81426 | 2390 ft | 128 kts | 276° |
| 2026-04-26 18:54 | 57.57993 | 10.80337 | 2387 ft | 127 kts | 276° |
| 2026-04-26 18:54 | 57.58138 | 10.78307 | 2391 ft | 126 kts | 276° |
| 2026-04-26 18:55 | 57.58257 | 10.76689 | 2398 ft | 126 kts | 277° |
| 2026-04-26 18:55 | 57.58376 | 10.75070 | 2398 ft | 126 kts | 277° |
| 2026-04-26 18:55 | 57.58491 | 10.73452 | 2399 ft | 126 kts | 276° |
| 2026-04-26 18:55 | 57.58607 | 10.71828 | 2400 ft | 126 kts | 277° |
| 2026-04-26 18:56 | 57.58722 | 10.70222 | 2397 ft | 126 kts | 276° |
| 2026-04-26 18:56 | 57.58838 | 10.68594 | 2398 ft | 127 kts | 276° |
| 2026-04-26 18:56 | 57.58914 | 10.67508 | 2396 ft | 126 kts | 276° |
| 2026-04-26 18:56 | 57.59069 | 10.65344 | 2398 ft | 127 kts | 276° |
| 2026-04-26 18:57 | 57.59148 | 10.64240 | 2392 ft | 126 kts | 276° |
| 2026-04-26 18:57 | 57.59226 | 10.63162 | 2395 ft | 127 kts | 276° |
| 2026-04-26 18:57 | 57.59383 | 10.60982 | 2396 ft | 127 kts | 276° |
| 2026-04-26 18:57 | 57.59500 | 10.59368 | 2394 ft | 127 kts | 276° |
| 2026-04-26 18:58 | 57.59617 | 10.57732 | 2399 ft | 127 kts | 276° |
| 2026-04-26 18:58 | 57.59730 | 10.56141 | 2390 ft | 127 kts | 276° |
| 2026-04-26 18:58 | 57.59743 | 10.54506 | 2398 ft | 127 kts | 253° |
| 2026-04-26 18:58 | 57.59381 | 10.52998 | 2399 ft | 128 kts | 245° |
| 2026-04-26 18:59 | 57.58983 | 10.51515 | 2394 ft | 127 kts | 241° |
| 2026-04-26 18:59 | 57.58578 | 10.50047 | 2396 ft | 128 kts | 244° |
| 2026-04-26 18:59 | 57.58175 | 10.48582 | 2395 ft | 128 kts | 244° |
| 2026-04-26 18:59 | 57.57767 | 10.47115 | 2382 ft | 127 kts | 244° |
| 2026-04-26 19:00 | 57.57356 | 10.45650 | 2293 ft | 128 kts | 243° |
| 2026-04-26 19:00 | 57.56945 | 10.44177 | 2202 ft | 128 kts | 243° |
| 2026-04-26 19:00 | 57.56562 | 10.42805 | 2131 ft | 128 kts | 243° |
| 2026-04-26 19:00 | 57.56167 | 10.41371 | 2051 ft | 127 kts | 243° |
| 2026-04-26 19:01 | 57.55772 | 10.39936 | 1929 ft | 120 kts | 243° |
| 2026-04-26 19:01 | 57.55385 | 10.38522 | 1599 ft | 122 kts | 243° |
| 2026-04-26 19:01 | 57.55010 | 10.37144 | 1509 ft | 114 kts | 243° |
| 2026-04-26 19:01 | 57.54668 | 10.35882 | 1492 ft | 101 kts | 243° |
| 2026-04-26 19:02 | 57.54379 | 10.34808 | 1547 ft | 85 kts | 243° |
| 2026-04-26 19:02 | 57.54126 | 10.33867 | 1514 ft | 83 kts | 243° |
| 2026-04-26 19:02 | 57.53866 | 10.32920 | 1494 ft | 81 kts | 240° |
| 2026-04-26 19:02 | 57.53634 | 10.32405 | 1411 ft | 87 kts | 215° |
| 2026-04-26 19:03 | 57.52880 | 10.31983 | 1358 ft | 85 kts | 198° |
| 2026-04-26 19:03 | 57.52296 | 10.31717 | 913 ft | 95 kts | 201° |
| 2026-04-26 19:03 | 57.51740 | 10.31296 | 724 ft | 78 kts | 204° |
| 2026-04-26 19:03 | 57.51242 | 10.30925 | 674 ft | 78 kts | 204° |
| 2026-04-26 19:04 | 57.50781 | 10.30359 | 597 ft | 82 kts | 239° |
| 2026-04-26 19:04 | 57.50574 | 10.29416 | 552 ft | 78 kts | 261° |
| 2026-04-26 19:04 | 57.50553 | 10.28382 | 458 ft | 83 kts | 264° |
| 2026-04-26 19:04 | 57.50510 | 10.27274 | 344 ft | 83 kts | 260° |
| 2026-04-26 19:05 | 57.50435 | 10.25243 | 217 ft | 77 kts | 263° |
| 2026-04-26 19:05 | 57.50404 | 10.24231 | 141 ft | 74 kts | 264° |
| 2026-04-26 19:05 | 57.50376 | 10.23377 | 96 ft | 58 kts | 262° |
| 2026-04-26 19:06 | 57.50349 | 10.22818 | 95 ft | 28 kts | 265° |
| 2026-04-26 19:06 | 57.50340 | 10.22502 | 94 ft | 20 kts | 266° |
| 2026-04-26 19:06 | 57.50386 | 10.22413 | 95 ft | 15 kts | 359° |
| 2026-04-26 19:06 | 57.50459 | 10.22397 | 95 ft | 7 kts | 356° |
| 2026-04-26 19:07 | 57.50464 | 10.22380 | 97 ft | 7 kts | 127° |
| 2026-04-26 19:07 | 57.50458 | 10.22411 | 95 ft | 0 kts | 153° |